Time;durP1;ratioP1;P1;durP2;ratioP2;P2;SDS_P1;SDS_P2;PMS_P1;PMS_P2;Temp;Humidity;BMP_temperature;BMP_pressure;BME280_temperature;BME280_humidity;BME280_pressure;Samples;Min_cycle;Max_cycle;Signal;HPM_P1;HPM_P2
2021/05/23 00:01:27;;;;;;;12.10;3.40;;;8.40;86.80;;;;;;5075691;28;20040;-53
2021/05/23 00:03:53;;;;;;;10.18;2.92;;;8.40;87.00;;;;;;5075031;28;20047;-57
2021/05/23 00:06:20;;;;;;;10.25;3.80;;;8.40;86.90;;;;;;5077817;28;20040;-57
2021/05/23 00:08:45;;;;;;;7.35;2.90;;;8.40;86.80;;;;;;5085397;28;20551;-57
2021/05/23 00:11:11;;;;;;;7.38;2.92;;;8.40;86.80;;;;;;5077826;28;20040;-57
2021/05/23 00:13:44;;;;;;;9.13;2.83;;;8.40;86.90;;;;;;5054629;28;20075;-57
2021/05/23 00:16:17;;;;;;;8.63;3.28;;;8.30;87.00;;;;;;5066781;28;20133;-56
2021/05/23 00:18:46;;;;;;;13.82;3.28;;;8.30;87.20;;;;;;5072440;28;20042;-57
2021/05/23 00:21:13;;;;;;;6.55;2.88;;;8.30;87.30;;;;;;5076310;28;20044;-52
2021/05/23 00:23:39;;;;;;;13.15;3.25;;;8.30;87.40;;;;;;5073347;28;20047;-54
2021/05/23 00:26:05;;;;;;;11.35;3.10;;;8.30;87.40;;;;;;5074511;28;20048;-52
2021/05/23 00:28:31;;;;;;;8.90;2.80;;;8.20;87.40;;;;;;5086478;28;20047;-54
2021/05/23 00:31:00;;;;;;;13.45;3.22;;;8.20;87.40;;;;;;5072263;28;20048;-54
2021/05/23 00:33:26;;;;;;;11.95;2.92;;;8.20;87.70;;;;;;5076431;28;20113;-53
2021/05/23 00:35:52;;;;;;;13.98;3.03;;;8.20;88.00;;;;;;5078313;28;20041;-53
2021/05/23 00:38:19;;;;;;;10.50;3.50;;;8.10;88.00;;;;;;5078061;28;20036;-51
2021/05/23 00:40:44;;;;;;;11.27;3.10;;;8.10;88.00;;;;;;5073938;28;20122;-50
2021/05/23 00:43:18;;;;;;;12.45;3.88;;;8.10;88.20;;;;;;5073041;28;20531;-51
2021/05/23 00:45:45;;;;;;;14.15;3.50;;;8.10;88.30;;;;;;5072168;28;20051;-54
2021/05/23 00:48:12;;;;;;;11.60;3.53;;;8.00;88.20;;;;;;5074258;28;20560;-51
2021/05/23 00:50:38;;;;;;;10.80;3.00;;;8.00;88.40;;;;;;5054075;28;20033;-57
2021/05/23 00:53:05;;;;;;;13.57;3.75;;;8.00;88.60;;;;;;5059340;28;20039;-55
2021/05/23 00:55:31;;;;;;;14.70;3.97;;;8.00;88.70;;;;;;5071179;28;20041;-53
2021/05/23 00:57:57;;;;;;;16.23;3.90;;;7.90;88.80;;;;;;5076710;28;20047;-56
2021/05/23 01:00:41;;;;;;;12.48;3.72;;;7.90;88.90;;;;;;5074236;28;20043;-52
2021/05/23 01:03:29;;;;;;;11.82;3.60;;;7.90;89.40;;;;;;5067765;28;20032;-54
2021/05/23 01:05:58;;;;;;;8.75;3.47;;;7.90;89.60;;;;;;5066939;28;20072;-54
2021/05/23 01:08:25;;;;;;;10.55;3.60;;;7.80;89.30;;;;;;5078217;28;20032;-53
2021/05/23 01:11:00;;;;;;;12.75;3.80;;;7.80;89.50;;;;;;5074819;28;20059;-52
2021/05/23 01:13:36;;;;;;;14.45;4.25;;;7.80;89.80;;;;;;5086443;28;20888;-54
2021/05/23 01:16:15;;;;;;;12.80;4.10;;;7.80;90.00;;;;;;5071863;28;20052;-56
2021/05/23 01:18:45;;;;;;;11.90;4.40;;;7.80;90.00;;;;;;5081823;28;20044;-58
2021/05/23 01:21:11;;;;;;;6.70;3.85;;;7.80;90.00;;;;;;5076068;28;20051;-59
2021/05/23 01:23:52;;;;;;;9.65;3.88;;;7.70;90.00;;;;;;5076558;28;20480;-57
2021/05/23 01:26:18;;;;;;;11.05;4.00;;;7.70;90.10;;;;;;5072572;28;20053;-58
2021/05/23 01:28:49;;;;;;;17.20;4.85;;;7.70;90.10;;;;;;5073368;28;20124;-56
2021/05/23 01:31:20;;;;;;;13.97;4.63;;;7.60;90.10;;;;;;5042772;28;20148;-57
2021/05/23 01:33:53;;;;;;;15.27;4.15;;;7.60;90.20;;;;;;5077373;28;20291;-58
2021/05/23 01:36:21;;;;;;;10.73;4.40;;;7.60;90.30;;;;;;5071182;28;20086;-57
2021/05/23 01:38:47;;;;;;;14.02;4.75;;;7.60;90.40;;;;;;5060642;28;20497;-58
2021/05/23 01:41:13;;;;;;;9.13;4.65;;;7.50;90.30;;;;;;5071865;28;20098;-59
2021/05/23 01:43:39;;;;;;;15.95;4.90;;;7.50;90.40;;;;;;5057858;28;20037;-58
2021/05/23 01:46:06;;;;;;;11.70;4.55;;;7.50;90.40;;;;;;5066633;28;20127;-58
2021/05/23 01:48:35;;;;;;;14.45;3.95;;;7.40;90.50;;;;;;5084646;28;20039;-55
2021/05/23 01:51:00;;;;;;;12.07;4.57;;;7.40;90.50;;;;;;5075012;28;20063;-58
2021/05/23 01:53:26;;;;;;;10.32;4.47;;;7.40;90.60;;;;;;5083807;28;20504;-58
2021/05/23 01:55:53;;;;;;;13.60;4.78;;;7.40;90.60;;;;;;5040327;28;20052;-58
2021/05/23 01:58:18;;;;;;;13.75;4.90;;;7.40;90.70;;;;;;5055424;28;20037;-58
2021/05/23 02:00:50;;;;;;;13.70;4.72;;;7.40;90.80;;;;;;5072455;28;20037;-57
2021/05/23 02:03:19;;;;;;;11.63;4.53;;;7.40;90.80;;;;;;5073076;28;20037;-57
2021/05/23 02:05:50;;;;;;;13.50;5.43;;;7.30;90.80;;;;;;5057555;28;20037;-58
2021/05/23 02:08:18;;;;;;;16.03;5.60;;;7.40;91.00;;;;;;5038752;28;20098;-51
2021/05/23 02:10:44;;;;;;;13.65;6.05;;;7.30;91.00;;;;;;5073273;28;20279;-51
2021/05/23 02:13:10;;;;;;;18.08;5.68;;;7.30;91.10;;;;;;5069411;28;20045;-54
2021/05/23 02:15:37;;;;;;;12.82;5.68;;;7.30;91.10;;;;;;5066116;28;20052;-51
2021/05/23 02:18:04;;;;;;;11.57;5.60;;;7.30;91.10;;;;;;5070242;28;20040;-51
2021/05/23 02:20:31;;;;;;;11.20;5.05;;;7.30;91.20;;;;;;5072076;28;20416;-54
2021/05/23 02:22:59;;;;;;;15.75;5.45;;;7.30;91.20;;;;;;5080151;28;20138;-51
2021/05/23 02:25:28;;;;;;;23.67;5.72;;;7.20;91.20;;;;;;5073423;28;20488;-52
2021/05/23 02:27:58;;;;;;;17.77;6.32;;;7.20;91.20;;;;;;5078372;28;20040;-55
2021/05/23 02:30:33;;;;;;;14.63;5.15;;;7.20;91.30;;;;;;5075682;28;20044;-55
2021/05/23 02:33:00;;;;;;;15.07;5.63;;;7.20;91.40;;;;;;5065204;28;20053;-51
2021/05/23 02:35:28;;;;;;;12.48;5.43;;;7.30;91.50;;;;;;5056819;28;20077;-51
2021/05/23 02:37:54;;;;;;;16.50;5.55;;;7.30;91.30;;;;;;5058200;28;20049;-51
2021/05/23 02:40:22;;;;;;;13.40;5.38;;;7.30;91.30;;;;;;5068369;28;20071;-53
2021/05/23 02:42:49;;;;;;;12.63;5.20;;;7.30;91.30;;;;;;5072103;28;20071;-56
2021/05/23 02:45:16;;;;;;;11.80;5.18;;;7.30;91.30;;;;;;5073023;28;20045;-55
2021/05/23 02:47:43;;;;;;;18.25;5.07;;;7.20;91.20;;;;;;5080364;28;20270;-56
2021/05/23 02:50:30;;;;;;;14.32;5.45;;;7.20;91.30;;;;;;5080425;28;20075;-51
2021/05/23 02:52:57;;;;;;;15.05;5.78;;;7.20;91.20;;;;;;5061519;28;20052;-53
2021/05/23 02:55:23;;;;;;;18.00;5.50;;;7.20;91.20;;;;;;5085879;28;20047;-54
2021/05/23 02:57:50;;;;;;;14.70;5.22;;;7.20;91.20;;;;;;5077084;28;20425;-51
2021/05/23 03:00:21;;;;;;;14.32;4.97;;;7.20;91.30;;;;;;5068713;28;20036;-55
2021/05/23 03:02:47;;;;;;;12.10;5.70;;;7.20;91.30;;;;;;5070482;28;20040;-55
2021/05/23 03:05:15;;;;;;;17.83;5.57;;;7.20;91.20;;;;;;5073240;28;20049;-54
2021/05/23 03:07:43;;;;;;;16.10;5.72;;;7.20;91.30;;;;;;5056270;28;20032;-57
2021/05/23 03:10:13;;;;;;;18.63;5.65;;;7.20;91.30;;;;;;5073074;28;20131;-57
2021/05/23 03:12:40;;;;;;;17.23;5.70;;;7.20;91.30;;;;;;5069822;28;20048;-58
2021/05/23 03:15:09;;;;;;;11.95;6.13;;;7.20;91.30;;;;;;5073551;28;20451;-52
2021/05/23 03:17:34;;;;;;;16.73;6.03;;;7.30;91.30;;;;;;5073527;28;20036;-55
2021/05/23 03:20:00;;;;;;;17.58;6.78;;;7.30;91.40;;;;;;5064061;28;20508;-55
2021/05/23 03:22:25;;;;;;;14.77;6.32;;;7.30;91.40;;;;;;5073220;28;20455;-54
2021/05/23 03:24:51;;;;;;;12.35;5.82;;;7.30;91.40;;;;;;5071322;28;20047;-55
2021/05/23 03:27:17;;;;;;;15.23;6.45;;;7.30;91.40;;;;;;5084054;28;20465;-56
2021/05/23 03:29:43;;;;;;;16.35;6.72;;;7.30;91.50;;;;;;5070620;28;20800;-55
2021/05/23 03:32:08;;;;;;;14.73;6.53;;;7.40;91.50;;;;;;5078150;28;20138;-55
2021/05/23 03:34:34;;;;;;;15.70;6.72;;;7.40;91.50;;;;;;5079490;28;20066;-52
2021/05/23 03:37:00;;;;;;;13.50;6.30;;;7.40;91.60;;;;;;5073290;28;20419;-55
2021/05/23 03:39:26;;;;;;;18.77;7.30;;;7.40;91.50;;;;;;5068398;28;20086;-54
2021/05/23 03:41:51;;;;;;;20.38;7.15;;;7.40;91.60;;;;;;5072571;28;20049;-57
2021/05/23 03:44:17;;;;;;;20.98;6.85;;;7.50;91.60;;;;;;5066244;28;20079;-59
2021/05/23 03:46:43;;;;;;;17.95;7.05;;;7.50;91.60;;;;;;5068116;28;20040;-55
2021/05/23 03:49:08;;;;;;;18.63;6.53;;;7.50;91.60;;;;;;5055220;28;20087;-55
2021/05/23 03:51:34;;;;;;;19.13;7.13;;;7.50;91.50;;;;;;5072778;28;20124;-55
2021/05/23 03:54:00;;;;;;;17.17;7.35;;;7.50;91.60;;;;;;5072273;28;20421;-55
2021/05/23 03:56:26;;;;;;;21.67;7.45;;;7.50;91.70;;;;;;5072386;28;20059;-58
2021/05/23 03:58:52;;;;;;;17.98;6.97;;;7.50;91.60;;;;;;5064416;28;20051;-54
2021/05/23 04:01:17;;;;;;;18.05;7.75;;;7.60;91.80;;;;;;5072695;28;20047;-57
2021/05/23 04:03:43;;;;;;;18.33;7.65;;;7.60;91.70;;;;;;5071437;28;20040;-54
2021/05/23 04:06:09;;;;;;;17.40;7.13;;;7.60;91.70;;;;;;5070788;28;20033;-54
2021/05/23 04:08:35;;;;;;;19.02;7.05;;;7.60;91.70;;;;;;5072028;28;20413;-55
2021/05/23 04:11:11;;;;;;;17.73;7.47;;;7.60;91.70;;;;;;5066789;28;20037;-57
2021/05/23 04:13:39;;;;;;;17.10;7.65;;;7.60;91.70;;;;;;5041062;28;20124;-58
2021/05/23 04:16:05;;;;;;;18.65;7.57;;;7.60;91.70;;;;;;5072654;28;20043;-58
2021/05/23 04:18:31;;;;;;;23.50;7.90;;;7.70;91.80;;;;;;5072938;28;20399;-58
2021/05/23 04:20:57;;;;;;;17.35;7.50;;;7.70;91.80;;;;;;5071796;28;20089;-59
2021/05/23 04:23:24;;;;;;;17.05;8.00;;;7.70;91.70;;;;;;5065022;28;20045;-58
2021/05/23 04:25:51;;;;;;;16.00;7.40;;;7.80;91.80;;;;;;5066255;28;20053;-59
2021/05/23 04:28:17;;;;;;;15.32;7.82;;;7.80;91.80;;;;;;5072059;28;20067;-57
2021/05/23 04:30:43;;;;;;;21.20;8.02;;;7.80;91.80;;;;;;5071564;28;20075;-58
2021/05/23 04:33:09;;;;;;;17.45;7.47;;;7.80;91.80;;;;;;5070697;28;20032;-58
2021/05/23 04:35:35;;;;;;;25.30;7.95;;;7.90;92.00;;;;;;5069837;28;20412;-58
2021/05/23 04:38:02;;;;;;;18.98;8.18;;;7.90;92.00;;;;;;5070471;28;20040;-59
2021/05/23 04:40:29;;;;;;;16.98;8.25;;;7.90;92.00;;;;;;5051746;28;20042;-59
2021/05/23 04:42:55;;;;;;;17.90;7.53;;;7.90;92.10;;;;;;5071813;28;20147;-59
2021/05/23 04:45:20;;;;;;;19.70;8.57;;;8.00;92.10;;;;;;5072316;28;20116;-59
2021/05/23 04:47:46;;;;;;;17.33;8.05;;;8.00;92.10;;;;;;5062944;28;20111;-59
2021/05/23 04:50:12;;;;;;;18.95;7.68;;;8.00;92.10;;;;;;5049239;28;20048;-59
2021/05/23 04:52:38;;;;;;;18.58;7.90;;;8.10;92.20;;;;;;5053535;28;20467;-58
2021/05/23 04:55:05;;;;;;;18.40;8.63;;;8.10;92.20;;;;;;5040881;28;20067;-59
2021/05/23 04:57:31;;;;;;;15.02;7.22;;;8.20;92.20;;;;;;5057815;28;20043;-59
2021/05/23 04:59:57;;;;;;;19.42;7.68;;;8.20;92.20;;;;;;5071675;28;20070;-59
2021/05/23 05:02:23;;;;;;;18.58;7.97;;;8.20;92.10;;;;;;5070431;28;20041;-57
2021/05/23 05:04:49;;;;;;;19.00;7.80;;;8.20;92.20;;;;;;5060913;28;20076;-59
2021/05/23 05:07:14;;;;;;;22.02;8.18;;;8.20;92.20;;;;;;5068031;28;20036;-59
2021/05/23 05:09:40;;;;;;;15.32;7.40;;;8.20;92.20;;;;;;5063508;28;20055;-58
2021/05/23 05:12:06;;;;;;;24.30;8.48;;;8.20;92.20;;;;;;5070727;28;20043;-58
2021/05/23 05:14:32;;;;;;;15.00;7.22;;;8.20;92.10;;;;;;5057844;28;20386;-58
2021/05/23 05:16:58;;;;;;;20.55;7.88;;;8.30;92.20;;;;;;5070389;28;20059;-57
2021/05/23 05:19:24;;;;;;;16.95;7.70;;;8.40;92.20;;;;;;5070255;28;20041;-57
2021/05/23 05:21:49;;;;;;;20.00;7.70;;;8.60;92.30;;;;;;5068861;28;20055;-56
2021/05/23 05:24:15;;;;;;;16.95;7.95;;;8.90;92.30;;;;;;5055566;28;20137;-57
2021/05/23 05:26:41;;;;;;;18.75;7.60;;;9.10;92.00;;;;;;5049931;28;20040;-57
2021/05/23 05:29:07;;;;;;;18.83;7.32;;;9.30;91.90;;;;;;5066002;28;20045;-57
2021/05/23 05:31:33;;;;;;;15.25;6.43;;;9.40;91.60;;;;;;5058384;28;20539;-57
2021/05/23 05:33:59;;;;;;;13.00;6.68;;;9.40;91.40;;;;;;5070867;28;20045;-57
2021/05/23 05:36:26;;;;;;;17.73;6.55;;;9.60;91.30;;;;;;5068582;28;20083;-58
2021/05/23 05:38:51;;;;;;;15.05;7.05;;;9.80;91.20;;;;;;5066980;28;20101;-56
2021/05/23 05:41:19;;;;;;;18.83;6.90;;;10.00;91.00;;;;;;5070757;28;20032;-56
2021/05/23 05:43:45;;;;;;;15.05;6.10;;;10.20;90.50;;;;;;5070272;28;20127;-53
2021/05/23 05:46:11;;;;;;;14.98;6.43;;;10.30;90.20;;;;;;5062849;28;20132;-58
2021/05/23 05:48:36;;;;;;;16.63;6.40;;;10.50;89.90;;;;;;5070630;28;20067;-57
2021/05/23 05:51:02;;;;;;;17.13;6.82;;;11.00;88.30;;;;;;5070875;28;20046;-56
2021/05/23 05:53:28;;;;;;;16.25;7.03;;;11.40;87.10;;;;;;5050230;28;20033;-58
2021/05/23 05:55:54;;;;;;;21.65;6.93;;;11.40;85.90;;;;;;5070634;28;20114;-56
2021/05/23 05:58:20;;;;;;;17.70;6.63;;;11.30;86.40;;;;;;5070547;28;20044;-56
2021/05/23 06:00:45;;;;;;;17.08;6.00;;;11.20;86.80;;;;;;5046830;28;20040;-56
2021/05/23 06:03:11;;;;;;;20.25;6.53;;;11.20;87.10;;;;;;5069951;28;20036;-58
2021/05/23 06:05:37;;;;;;;18.67;6.45;;;11.10;87.10;;;;;;5033679;28;20110;-58
2021/05/23 06:08:03;;;;;;;15.27;6.65;;;11.10;87.40;;;;;;5064226;28;20052;-58
2021/05/23 06:10:29;;;;;;;17.00;6.50;;;11.10;87.40;;;;;;5033117;28;20516;-56
2021/05/23 06:12:54;;;;;;;13.93;6.38;;;11.20;87.50;;;;;;5067971;28;20048;-55
2021/05/23 06:15:20;;;;;;;13.15;5.53;;;11.30;87.40;;;;;;5070079;28;20040;-55
2021/05/23 06:17:46;;;;;;;14.85;5.82;;;11.30;86.90;;;;;;5051410;28;20500;-52
2021/05/23 06:20:12;;;;;;;14.15;5.78;;;11.40;86.30;;;;;;5066441;28;20043;-55
2021/05/23 06:22:39;;;;;;;15.90;5.65;;;11.40;86.10;;;;;;5065818;28;20642;-56
2021/05/23 06:25:06;;;;;;;19.02;5.70;;;11.50;86.10;;;;;;5064102;28;20040;-58
2021/05/23 06:27:32;;;;;;;18.00;5.93;;;11.60;85.90;;;;;;5069684;28;20044;-57
2021/05/23 06:29:57;;;;;;;15.50;5.10;;;11.70;85.30;;;;;;5065653;28;20043;-56
2021/05/23 06:32:23;;;;;;;12.85;4.93;;;11.70;85.00;;;;;;5064253;28;20114;-58
2021/05/23 06:34:49;;;;;;;14.20;5.05;;;11.70;85.20;;;;;;5071080;28;20101;-58
2021/05/23 06:37:15;;;;;;;12.57;4.72;;;11.70;84.20;;;;;;5069462;28;20082;-58
2021/05/23 06:39:41;;;;;;;11.07;4.22;;;11.70;84.30;;;;;;5073172;28;20060;-56
2021/05/23 06:42:06;;;;;;;15.18;4.75;;;11.70;83.00;;;;;;5073569;28;20103;-56
2021/05/23 06:44:32;;;;;;;14.15;5.47;;;11.70;81.40;;;;;;5062543;28;20047;-57
2021/05/23 06:46:58;;;;;;;13.85;5.68;;;11.60;81.80;;;;;;5070592;28;20059;-56
2021/05/23 06:49:23;;;;;;;15.75;6.63;;;11.50;82.80;;;;;;5073714;28;20400;-58
2021/05/23 06:51:49;;;;;;;10.18;5.72;;;11.50;83.70;;;;;;5055554;28;20041;-56
2021/05/23 06:54:15;;;;;;;14.80;6.03;;;11.50;84.50;;;;;;5073602;28;20044;-56
2021/05/23 06:56:40;;;;;;;15.57;6.85;;;11.50;84.70;;;;;;5065871;28;20454;-57
2021/05/23 06:59:06;;;;;;;15.82;6.28;;;11.50;84.70;;;;;;5072504;28;20045;-57
2021/05/23 07:01:32;;;;;;;19.35;6.50;;;11.50;85.50;;;;;;5073951;28;20055;-58
2021/05/23 07:03:58;;;;;;;17.88;6.57;;;11.40;85.10;;;;;;5058759;28;20050;-56
2021/05/23 07:06:24;;;;;;;13.25;6.43;;;11.40;85.20;;;;;;5073452;28;20112;-56
2021/05/23 07:08:50;;;;;;;15.90;6.28;;;11.40;85.20;;;;;;5072807;28;20068;-57
2021/05/23 07:11:16;;;;;;;15.02;6.90;;;11.30;85.10;;;;;;5070190;28;20083;-57
2021/05/23 07:13:42;;;;;;;13.80;7.07;;;11.30;85.70;;;;;;5073203;28;20114;-56
2021/05/23 07:16:08;;;;;;;22.77;8.60;;;11.20;85.70;;;;;;5055624;28;20075;-55
2021/05/23 07:18:33;;;;;;;16.60;8.27;;;11.20;86.10;;;;;;5073101;28;20343;-56
2021/05/23 07:20:59;;;;;;;17.00;9.10;;;11.20;86.90;;;;;;5072341;28;20044;-60
2021/05/23 07:23:27;;;;;;;16.00;9.10;;;11.10;87.30;;;;;;5055883;28;20033;-59
2021/05/23 07:25:52;;;;;;;19.52;9.32;;;11.20;88.40;;;;;;5071705;28;20497;-58
2021/05/23 07:28:18;;;;;;;16.00;9.55;;;11.10;89.10;;;;;;5071592;28;20028;-58
2021/05/23 07:30:44;;;;;;;18.63;11.23;;;11.10;89.40;;;;;;5055133;28;20409;-58
2021/05/23 07:33:10;;;;;;;20.83;10.05;;;11.10;89.70;;;;;;5071921;28;20122;-57
2021/05/23 07:35:36;;;;;;;21.58;11.98;;;11.00;90.10;;;;;;5069411;28;20072;-57
2021/05/23 07:38:03;;;;;;;20.17;13.30;;;11.00;90.20;;;;;;5071681;28;20040;-57
2021/05/23 07:40:28;;;;;;;16.10;11.15;;;11.00;90.60;;;;;;5069821;28;20086;-58
2021/05/23 07:42:54;;;;;;;21.35;14.25;;;11.00;90.60;;;;;;5071657;28;20036;-57
2021/05/23 07:45:20;;;;;;;54.97;48.10;;;11.00;90.70;;;;;;5070517;28;20394;-58
2021/05/23 07:47:45;;;;;;;29.13;22.38;;;11.00;90.90;;;;;;5072148;28;20127;-58
2021/05/23 07:50:13;;;;;;;27.92;18.77;;;11.00;91.10;;;;;;5070971;28;20048;-58
2021/05/23 07:52:39;;;;;;;24.33;16.13;;;11.00;91.10;;;;;;5071351;28;20029;-57
2021/05/23 07:55:05;;;;;;;21.48;11.43;;;11.00;91.10;;;;;;5068018;28;20131;-58
2021/05/23 07:57:31;;;;;;;21.45;11.60;;;11.10;91.20;;;;;;5071374;28;20518;-57
2021/05/23 07:59:57;;;;;;;18.10;10.80;;;11.10;91.40;;;;;;5072302;28;20038;-57
2021/05/23 08:02:23;;;;;;;22.80;12.27;;;11.10;91.50;;;;;;5060864;28;20040;-58
2021/05/23 08:04:49;;;;;;;19.50;12.32;;;11.20;91.70;;;;;;5071214;28;20044;-57
2021/05/23 08:07:14;;;;;;;19.13;12.27;;;11.30;91.40;;;;;;5070965;28;20043;-58
2021/05/23 08:09:40;;;;;;;25.02;14.75;;;11.20;91.30;;;;;;5071755;28;20037;-57
2021/05/23 08:12:06;;;;;;;24.40;15.93;;;11.30;91.40;;;;;;5070458;28;20488;-58
2021/05/23 08:14:31;;;;;;;26.42;16.52;;;11.40;91.50;;;;;;5052703;28;20036;-58
2021/05/23 08:16:57;;;;;;;23.92;16.15;;;11.40;91.40;;;;;;5071541;28;20480;-58
2021/05/23 08:19:23;;;;;;;25.45;16.42;;;11.40;91.40;;;;;;5069411;28;20115;-57
2021/05/23 08:21:49;;;;;;;77.28;54.92;;;11.40;91.30;;;;;;5071929;28;20527;-58
2021/05/23 08:24:15;;;;;;;28.50;20.35;;;11.50;91.40;;;;;;5068766;28;20063;-58
2021/05/23 08:26:40;;;;;;;25.33;16.08;;;11.60;91.30;;;;;;5071145;28;20074;-58
2021/05/23 08:29:06;;;;;;;21.45;15.65;;;11.60;91.30;;;;;;5052787;28;20044;-58
2021/05/23 08:31:32;;;;;;;21.48;15.02;;;11.70;91.20;;;;;;5070034;28;20040;-58
2021/05/23 08:33:58;;;;;;;24.15;14.73;;;11.70;91.10;;;;;;5070417;28;20063;-58
2021/05/23 08:36:24;;;;;;;21.30;13.68;;;11.70;91.10;;;;;;5053149;28;20086;-58
2021/05/23 08:38:51;;;;;;;23.27;15.43;;;11.70;91.10;;;;;;5071132;28;20056;-58
2021/05/23 08:41:18;;;;;;;20.35;14.30;;;11.80;90.90;;;;;;5070180;28;20090;-59
2021/05/23 08:43:45;;;;;;;27.13;14.50;;;11.80;90.80;;;;;;5069064;28;20044;-58
2021/05/23 08:46:11;;;;;;;12.77;9.05;;;11.70;90.80;;;;;;5068567;28;20108;-59
2021/05/23 08:48:39;;;;;;;14.27;9.75;;;11.60;90.70;;;;;;5069300;28;20461;-59
2021/05/23 08:51:05;;;;;;;13.98;10.10;;;11.50;90.80;;;;;;5070260;28;20404;-58
2021/05/23 08:53:31;;;;;;;16.65;11.55;;;11.40;90.90;;;;;;5052701;28;20097;-58
2021/05/23 08:55:57;;;;;;;18.83;13.02;;;11.30;91.20;;;;;;5066661;28;20477;-58
2021/05/23 08:58:24;;;;;;;18.70;13.95;;;11.30;91.50;;;;;;5067556;28;20527;-58
2021/05/23 09:00:50;;;;;;;21.75;12.88;;;11.20;91.70;;;;;;5069526;28;20378;-58
2021/05/23 09:03:16;;;;;;;20.38;14.25;;;11.20;91.80;;;;;;5069238;28;20098;-58
2021/05/23 09:05:58;;;;;;;18.17;13.43;;;11.30;92.10;;;;;;5070393;28;20043;-58
2021/05/23 09:08:29;;;;;;;17.63;11.48;;;11.60;92.80;;;;;;5069221;28;20040;-58
2021/05/23 09:10:57;;;;;;;16.33;12.13;;;11.80;92.20;;;;;;5070462;28;20048;-59
2021/05/23 09:13:28;;;;;;;17.65;13.50;;;12.00;92.10;;;;;;5068512;28;20041;-58
2021/05/23 09:16:13;;;;;;;15.07;11.05;;;12.10;91.80;;;;;;5066549;28;20044;-59
2021/05/23 09:18:45;;;;;;;12.23;8.23;;;12.10;91.80;;;;;;5069004;28;20040;-58
2021/05/23 09:21:15;;;;;;;8.48;5.43;;;12.10;91.50;;;;;;5068595;28;20072;-58
2021/05/23 09:23:49;;;;;;;7.05;4.85;;;12.10;91.00;;;;;;5068985;28;20139;-56
2021/05/23 09:26:23;;;;;;;7.32;4.80;;;12.20;90.60;;;;;;5069664;28;20139;-57
2021/05/23 09:28:54;;;;;;;5.05;3.85;;;12.20;90.50;;;;;;5068683;28;20040;-55
2021/05/23 09:31:23;;;;;;;5.28;3.50;;;12.20;90.20;;;;;;5041892;28;20043;-56
2021/05/23 09:33:52;;;;;;;4.90;4.00;;;12.30;90.40;;;;;;5066937;28;20052;-57
2021/05/23 09:36:19;;;;;;;5.97;3.50;;;12.30;90.10;;;;;;5068686;28;20045;-56
2021/05/23 09:38:54;;;;;;;5.22;3.85;;;12.40;89.20;;;;;;5059968;28;20045;-56
2021/05/23 09:41:23;;;;;;;5.82;3.92;;;12.40;89.00;;;;;;5068625;28;20417;-56
2021/05/23 09:43:49;;;;;;;4.88;3.67;;;12.30;89.40;;;;;;5070608;28;20054;-57
2021/05/23 09:46:15;;;;;;;5.25;3.47;;;12.20;89.30;;;;;;5066020;28;20401;-57
2021/05/23 09:48:49;;;;;;;7.53;4.07;;;12.30;89.40;;;;;;5069555;28;20544;-57
2021/05/23 09:51:17;;;;;;;5.93;3.50;;;12.30;90.00;;;;;;5069636;28;20038;-57
2021/05/23 09:53:43;;;;;;;3.95;3.05;;;12.30;90.10;;;;;;5069168;28;20094;-57
2021/05/23 09:56:12;;;;;;;5.28;3.60;;;12.40;90.00;;;;;;5069322;28;20492;-57
2021/05/23 09:58:45;;;;;;;6.43;3.78;;;12.50;89.00;;;;;;5063310;28;20045;-56
2021/05/23 10:01:25;;;;;;;5.90;4.20;;;12.50;88.50;;;;;;5061281;28;20071;-55
2021/05/23 10:03:53;;;;;;;5.47;3.60;;;12.70;88.50;;;;;;5067864;28;20127;-57
2021/05/23 10:06:30;;;;;;;7.28;4.03;;;12.80;87.60;;;;;;5071091;28;20443;-56
2021/05/23 10:08:57;;;;;;;7.72;5.03;;;12.90;87.80;;;;;;5071597;28;20040;-57
2021/05/23 10:11:24;;;;;;;6.55;4.40;;;13.10;87.70;;;;;;5073446;28;20108;-57
2021/05/23 10:13:50;;;;;;;7.97;4.93;;;13.30;86.50;;;;;;5072724;28;20131;-58
2021/05/23 10:16:17;;;;;;;12.25;6.15;;;13.40;86.00;;;;;;5070926;28;20048;-57
2021/05/23 10:18:44;;;;;;;7.00;4.75;;;13.40;85.30;;;;;;5063082;28;20055;-58
2021/05/23 10:21:12;;;;;;;8.23;5.25;;;13.40;85.80;;;;;;5073517;28;20049;-57
2021/05/23 10:23:45;;;;;;;8.48;5.50;;;13.40;84.20;;;;;;5073074;28;20078;-56
2021/05/23 10:26:13;;;;;;;10.75;6.00;;;13.40;83.80;;;;;;5055568;28;20036;-57
2021/05/23 10:28:41;;;;;;;10.88;6.22;;;13.60;84.90;;;;;;5068973;28;20412;-57
2021/05/23 10:31:07;;;;;;;10.77;6.50;;;13.70;83.00;;;;;;5071218;28;20405;-57
2021/05/23 10:33:32;;;;;;;9.95;6.60;;;13.80;83.30;;;;;;5071802;28;20423;-58
2021/05/23 10:35:58;;;;;;;10.15;6.60;;;13.90;83.40;;;;;;5072653;28;20044;-57
2021/05/23 10:38:26;;;;;;;14.23;7.03;;;14.00;83.00;;;;;;5071623;28;20525;-58
2021/05/23 10:40:58;;;;;;;12.27;7.05;;;14.10;83.00;;;;;;5072890;28;20048;-57
2021/05/23 10:43:27;;;;;;;14.88;6.65;;;14.10;81.50;;;;;;5072054;28;20058;-55
2021/05/23 10:46:12;;;;;;;2.33;1.63;;;13.90;82.30;;;;;;5071779;28;20512;-55
2021/05/23 10:48:39;;;;;;;3.28;1.90;;;13.70;79.00;;;;;;5055084;28;20111;-56
2021/05/23 10:51:14;;;;;;;4.97;1.80;;;13.50;79.30;;;;;;5072965;28;20044;-55
2021/05/23 10:53:40;;;;;;;1.83;1.70;;;13.20;79.40;;;;;;5071039;28;20043;-54
2021/05/23 10:56:16;;;;;;;3.45;1.80;;;13.00;80.20;;;;;;5072905;28;20043;-55
2021/05/23 10:58:51;;;;;;;3.38;2.65;;;12.90;80.70;;;;;;5072594;28;20036;-55
2021/05/23 11:01:18;;;;;;;5.35;2.50;;;12.90;81.30;;;;;;5050369;28;20041;-54
2021/05/23 11:03:44;;;;;;;4.20;2.10;;;12.90;79.90;;;;;;5071717;28;20059;-55
2021/05/23 11:06:09;;;;;;;4.75;2.63;;;12.90;78.60;;;;;;5069771;28;20040;-53
2021/05/23 11:08:36;;;;;;;3.10;1.77;;;12.90;79.10;;;;;;5060817;28;20493;-57
2021/05/23 11:11:03;;;;;;;3.83;1.73;;;12.90;78.10;;;;;;5055059;28;20037;-58
2021/05/23 11:13:34;;;;;;;2.40;1.60;;;12.90;78.60;;;;;;5069876;28;20033;-56
2021/05/23 11:16:19;;;;;;;2.67;1.70;;;12.80;78.60;;;;;;5062184;28;20036;-57
2021/05/23 11:18:46;;;;;;;2.78;1.73;;;12.80;78.60;;;;;;5069496;28;20045;-56
2021/05/23 11:21:14;;;;;;;2.28;1.70;;;12.70;79.30;;;;;;5073692;28;20033;-57
2021/05/23 11:23:51;;;;;;;1.88;1.40;;;12.80;79.90;;;;;;5070792;28;20041;-57
2021/05/23 11:26:18;;;;;;;3.80;1.60;;;12.80;78.60;;;;;;5072013;28;20040;-55
2021/05/23 11:28:48;;;;;;;2.78;1.67;;;12.80;78.90;;;;;;5071469;28;20086;-55
2021/05/23 11:31:26;;;;;;;4.78;1.90;;;12.70;77.10;;;;;;5069633;28;20516;-55
2021/05/23 11:33:53;;;;;;;4.53;2.17;;;12.70;77.00;;;;;;5071930;28;20052;-55
2021/05/23 11:36:21;;;;;;;3.53;2.17;;;12.70;78.50;;;;;;5037885;28;20124;-54
2021/05/23 11:38:47;;;;;;;3.55;2.40;;;12.70;78.70;;;;;;5072414;28;20045;-58
2021/05/23 11:41:13;;;;;;;4.15;2.47;;;12.80;79.00;;;;;;5075544;28;20041;-56
2021/05/23 11:43:40;;;;;;;5.40;2.67;;;12.80;79.40;;;;;;5072168;28;20040;-56
2021/05/23 11:46:06;;;;;;;5.50;2.88;;;12.90;79.10;;;;;;5071270;28;20041;-56
2021/05/23 11:48:40;;;;;;;8.57;3.38;;;13.00;79.90;;;;;;5078256;28;20488;-56
2021/05/23 11:51:11;;;;;;;4.50;2.60;;;12.90;79.30;;;;;;5073738;28;20070;-57
2021/05/23 11:53:44;;;;;;;3.85;2.55;;;13.00;78.90;;;;;;5051347;28;20036;-56
2021/05/23 11:56:23;;;;;;;5.50;2.60;;;13.00;78.40;;;;;;5069338;28;20052;-58
2021/05/23 11:58:51;;;;;;;4.93;3.00;;;13.10;79.30;;;;;;5072245;28;20040;-57
2021/05/23 12:01:17;;;;;;;5.35;2.60;;;13.10;80.10;;;;;;5074423;28;20040;-57
2021/05/23 12:03:57;;;;;;;5.22;2.22;;;13.20;78.30;;;;;;5069763;28;20592;-55
2021/05/23 12:06:22;;;;;;;4.03;2.10;;;13.30;77.30;;;;;;5074112;28;20144;-59
2021/05/23 12:08:48;;;;;;;6.07;1.90;;;13.40;75.50;;;;;;5073181;28;20124;-59
2021/05/23 12:11:14;;;;;;;4.43;2.00;;;13.40;74.60;;;;;;5053376;28;20035;-59
2021/05/23 12:13:49;;;;;;;3.28;1.20;;;13.50;74.90;;;;;;5070477;28;20037;-59
2021/05/23 12:16:19;;;;;;;4.00;1.30;;;13.50;67.20;;;;;;5071988;28;20435;-59
2021/05/23 12:18:47;;;;;;;5.22;1.33;;;13.40;66.90;;;;;;5072330;28;20127;-59
2021/05/23 12:21:15;;;;;;;2.70;1.40;;;13.30;66.70;;;;;;5070507;28;20043;-56
2021/05/23 12:23:42;;;;;;;5.57;1.77;;;13.10;68.20;;;;;;5070550;28;20072;-58
2021/05/23 12:26:13;;;;;;;5.10;1.88;;;13.10;69.80;;;;;;5072309;28;20090;-59
2021/05/23 12:28:45;;;;;;;3.58;1.75;;;13.00;70.00;;;;;;5071115;28;20056;-59
2021/05/23 12:31:13;;;;;;;3.78;1.60;;;12.80;70.90;;;;;;5069874;28;20505;-59
2021/05/23 12:33:47;;;;;;;7.35;1.85;;;12.70;71.80;;;;;;5070935;28;20037;-58
2021/05/23 12:36:14;;;;;;;5.78;1.80;;;12.70;70.50;;;;;;5022288;28;20050;-59
2021/05/23 12:38:57;;;;;;;9.20;2.25;;;12.60;70.50;;;;;;5071097;28;20036;-59
2021/05/23 12:41:55;;;;;;;10.98;2.60;;;12.60;70.90;;;;;;5067338;28;20033;-59
2021/05/23 12:44:25;;;;;;;6.55;2.20;;;12.50;72.00;;;;;;5022977;28;20463;-59
2021/05/23 12:46:53;;;;;;;8.50;2.40;;;12.60;73.00;;;;;;5066420;28;20107;-59